sensor_id;sensor_type;location;lat;lon;timestamp;temperature;humidity
16243;DHT22;11719;51.052;6.982;2023-07-22T00:02:21;21.30;99.90
16243;DHT22;11719;51.052;6.982;2023-07-22T00:04:48;21.30;99.90
16243;DHT22;11719;51.052;6.982;2023-07-22T00:07:14;21.30;99.90
16243;DHT22;11719;51.052;6.982;2023-07-22T00:09:41;21.30;99.90
16243;DHT22;11719;51.052;6.982;2023-07-22T00:12:08;21.20;99.90
16243;DHT22;11719;51.052;6.982;2023-07-22T00:14:38;21.20;99.90
16243;DHT22;11719;51.052;6.982;2023-07-22T00:17:05;21.20;99.90
16243;DHT22;11719;51.052;6.982;2023-07-22T00:19:31;21.10;99.90
16243;DHT22;11719;51.052;6.982;2023-07-22T00:21:56;21.00;99.90
16243;DHT22;11719;51.052;6.982;2023-07-22T00:24:22;20.90;99.90
16243;DHT22;11719;51.052;6.982;2023-07-22T00:26:48;20.90;99.90
16243;DHT22;11719;51.052;6.982;2023-07-22T00:29:15;21.00;99.90
16243;DHT22;11719;51.052;6.982;2023-07-22T00:31:42;21.20;99.90
16243;DHT22;11719;51.052;6.982;2023-07-22T00:34:08;21.30;99.90
16243;DHT22;11719;51.052;6.982;2023-07-22T00:36:34;21.30;99.90
16243;DHT22;11719;51.052;6.982;2023-07-22T00:39:00;21.00;99.90
16243;DHT22;11719;51.052;6.982;2023-07-22T00:41:27;21.00;99.90
16243;DHT22;11719;51.052;6.982;2023-07-22T00:43:54;21.10;99.90
16243;DHT22;11719;51.052;6.982;2023-07-22T00:46:20;21.10;99.90
16243;DHT22;11719;51.052;6.982;2023-07-22T00:48:47;21.10;99.90
16243;DHT22;11719;51.052;6.982;2023-07-22T00:51:14;21.20;99.90
16243;DHT22;11719;51.052;6.982;2023-07-22T00:53:40;21.20;99.90
16243;DHT22;11719;51.052;6.982;2023-07-22T00:56:06;21.30;99.90
16243;DHT22;11719;51.052;6.982;2023-07-22T00:58:33;21.30;99.90
16243;DHT22;11719;51.052;6.982;2023-07-22T01:00:59;21.30;99.90
16243;DHT22;11719;51.052;6.982;2023-07-22T01:03:25;21.30;99.90
16243;DHT22;11719;51.052;6.982;2023-07-22T01:05:52;21.20;99.90
16243;DHT22;11719;51.052;6.982;2023-07-22T01:08:20;21.20;99.90
16243;DHT22;11719;51.052;6.982;2023-07-22T01:10:46;21.20;99.90
16243;DHT22;11719;51.052;6.982;2023-07-22T01:13:13;21.30;99.90
16243;DHT22;11719;51.052;6.982;2023-07-22T01:15:39;21.30;99.90
16243;DHT22;11719;51.052;6.982;2023-07-22T01:18:06;21.40;99.90
16243;DHT22;11719;51.052;6.982;2023-07-22T01:20:32;21.50;99.90
16243;DHT22;11719;51.052;6.982;2023-07-22T01:22:58;21.50;99.90
16243;DHT22;11719;51.052;6.982;2023-07-22T01:25:24;21.60;99.90
16243;DHT22;11719;51.052;6.982;2023-07-22T01:27:51;21.60;99.90
16243;DHT22;11719;51.052;6.982;2023-07-22T01:30:18;21.70;99.90
16243;DHT22;11719;51.052;6.982;2023-07-22T01:32:45;21.70;99.90
16243;DHT22;11719;51.052;6.982;2023-07-22T01:35:12;21.70;99.90
16243;DHT22;11719;51.052;6.982;2023-07-22T01:37:37;21.80;99.90
16243;DHT22;11719;51.052;6.982;2023-07-22T01:40:05;21.80;99.90
16243;DHT22;11719;51.052;6.982;2023-07-22T01:42:41;21.80;99.90
16243;DHT22;11719;51.052;6.982;2023-07-22T01:45:08;21.80;99.90
16243;DHT22;11719;51.052;6.982;2023-07-22T01:47:38;21.80;99.90
16243;DHT22;11719;51.052;6.982;2023-07-22T01:50:05;21.90;99.90
16243;DHT22;11719;51.052;6.982;2023-07-22T01:52:35;21.90;99.90
16243;DHT22;11719;51.052;6.982;2023-07-22T01:55:01;21.90;99.90
16243;DHT22;11719;51.052;6.982;2023-07-22T01:57:31;21.90;99.90
16243;DHT22;11719;51.052;6.982;2023-07-22T01:59:57;21.90;99.90
16243;DHT22;11719;51.052;6.982;2023-07-22T02:02:23;21.90;99.90
16243;DHT22;11719;51.052;6.982;2023-07-22T02:04:49;21.90;99.90
16243;DHT22;11719;51.052;6.982;2023-07-22T02:07:14;21.90;99.90
16243;DHT22;11719;51.052;6.982;2023-07-22T02:09:40;21.90;99.90
16243;DHT22;11719;51.052;6.982;2023-07-22T02:12:07;21.90;99.90
16243;DHT22;11719;51.052;6.982;2023-07-22T02:14:33;21.90;99.90
16243;DHT22;11719;51.052;6.982;2023-07-22T02:16:59;21.90;99.90
16243;DHT22;11719;51.052;6.982;2023-07-22T02:19:25;21.90;99.90
16243;DHT22;11719;51.052;6.982;2023-07-22T02:21:50;21.90;99.90
16243;DHT22;11719;51.052;6.982;2023-07-22T02:24:16;21.90;99.90
16243;DHT22;11719;51.052;6.982;2023-07-22T02:26:42;21.90;99.90
16243;DHT22;11719;51.052;6.982;2023-07-22T02:29:08;21.90;99.90
16243;DHT22;11719;51.052;6.982;2023-07-22T02:31:33;21.90;99.90
16243;DHT22;11719;51.052;6.982;2023-07-22T02:33:59;21.90;99.90
16243;DHT22;11719;51.052;6.982;2023-07-22T02:36:26;21.90;99.90
16243;DHT22;11719;51.052;6.982;2023-07-22T02:38:51;21.80;99.90
16243;DHT22;11719;51.052;6.982;2023-07-22T02:41:17;21.90;99.90
16243;DHT22;11719;51.052;6.982;2023-07-22T02:43:43;21.80;99.90
16243;DHT22;11719;51.052;6.982;2023-07-22T02:46:09;21.80;99.90
16243;DHT22;11719;51.052;6.982;2023-07-22T02:48:35;21.80;99.90
16243;DHT22;11719;51.052;6.982;2023-07-22T02:51:05;21.80;99.90
16243;DHT22;11719;51.052;6.982;2023-07-22T02:53:35;21.80;99.90
16243;DHT22;11719;51.052;6.982;2023-07-22T02:56:05;21.80;99.90
16243;DHT22;11719;51.052;6.982;2023-07-22T02:58:34;21.80;99.90
16243;DHT22;11719;51.052;6.982;2023-07-22T03:01:00;21.80;99.90
16243;DHT22;11719;51.052;6.982;2023-07-22T03:03:27;21.80;99.90
16243;DHT22;11719;51.052;6.982;2023-07-22T03:05:52;21.80;99.90
16243;DHT22;11719;51.052;6.982;2023-07-22T03:08:18;21.80;99.90
16243;DHT22;11719;51.052;6.982;2023-07-22T03:10:44;21.80;99.90
16243;DHT22;11719;51.052;6.982;2023-07-22T03:13:17;21.80;99.90
16243;DHT22;11719;51.052;6.982;2023-07-22T03:15:44;21.60;99.90
16243;DHT22;11719;51.052;6.982;2023-07-22T03:18:10;21.60;99.90
16243;DHT22;11719;51.052;6.982;2023-07-22T03:20:37;21.60;99.90
16243;DHT22;11719;51.052;6.982;2023-07-22T03:23:04;21.70;99.90
16243;DHT22;11719;51.052;6.982;2023-07-22T03:25:31;21.70;99.90
16243;DHT22;11719;51.052;6.982;2023-07-22T03:27:58;21.70;99.90
16243;DHT22;11719;51.052;6.982;2023-07-22T03:30:26;21.80;99.90
16243;DHT22;11719;51.052;6.982;2023-07-22T03:32:52;21.80;99.90
16243;DHT22;11719;51.052;6.982;2023-07-22T03:35:18;21.70;99.90
16243;DHT22;11719;51.052;6.982;2023-07-22T03:37:44;21.80;99.90
16243;DHT22;11719;51.052;6.982;2023-07-22T03:40:10;21.80;99.90
16243;DHT22;11719;51.052;6.982;2023-07-22T03:42:45;21.80;99.90
16243;DHT22;11719;51.052;6.982;2023-07-22T03:45:15;21.80;99.90
16243;DHT22;11719;51.052;6.982;2023-07-22T03:47:44;21.80;99.90
16243;DHT22;11719;51.052;6.982;2023-07-22T03:50:11;21.80;99.90
16243;DHT22;11719;51.052;6.982;2023-07-22T03:52:37;21.80;99.90
16243;DHT22;11719;51.052;6.982;2023-07-22T03:55:04;21.80;99.90
16243;DHT22;11719;51.052;6.982;2023-07-22T03:57:31;21.80;99.90
16243;DHT22;11719;51.052;6.982;2023-07-22T03:59:57;21.80;99.90
16243;DHT22;11719;51.052;6.982;2023-07-22T04:02:24;21.80;99.90
16243;DHT22;11719;51.052;6.982;2023-07-22T04:04:51;21.80;99.90
16243;DHT22;11719;51.052;6.982;2023-07-22T04:07:18;21.80;99.90
16243;DHT22;11719;51.052;6.982;2023-07-22T04:09:44;21.80;99.90
16243;DHT22;11719;51.052;6.982;2023-07-22T04:12:13;21.90;99.90
16243;DHT22;11719;51.052;6.982;2023-07-22T04:14:39;21.90;99.90
16243;DHT22;11719;51.052;6.982;2023-07-22T04:17:05;21.90;99.90
16243;DHT22;11719;51.052;6.982;2023-07-22T04:19:31;21.90;99.90
16243;DHT22;11719;51.052;6.982;2023-07-22T04:21:57;21.90;99.90
16243;DHT22;11719;51.052;6.982;2023-07-22T04:24:23;21.90;99.90
16243;DHT22;11719;51.052;6.982;2023-07-22T04:26:50;21.90;99.90
16243;DHT22;11719;51.052;6.982;2023-07-22T04:29:16;21.90;99.90
16243;DHT22;11719;51.052;6.982;2023-07-22T04:31:42;21.90;99.90
16243;DHT22;11719;51.052;6.982;2023-07-22T04:34:08;21.90;99.90
16243;DHT22;11719;51.052;6.982;2023-07-22T04:36:34;21.90;99.90
16243;DHT22;11719;51.052;6.982;2023-07-22T04:39:02;21.90;99.90
16243;DHT22;11719;51.052;6.982;2023-07-22T04:41:30;21.90;99.90
16243;DHT22;11719;51.052;6.982;2023-07-22T04:43:57;21.90;99.90
16243;DHT22;11719;51.052;6.982;2023-07-22T04:46:24;21.90;99.90
16243;DHT22;11719;51.052;6.982;2023-07-22T04:48:54;21.90;99.90
16243;DHT22;11719;51.052;6.982;2023-07-22T04:51:21;21.90;99.90
16243;DHT22;11719;51.052;6.982;2023-07-22T04:53:47;21.90;99.90
16243;DHT22;11719;51.052;6.982;2023-07-22T04:56:12;21.90;99.90
16243;DHT22;11719;51.052;6.982;2023-07-22T04:58:38;21.90;99.90
16243;DHT22;11719;51.052;6.982;2023-07-22T05:01:04;21.90;99.90
16243;DHT22;11719;51.052;6.982;2023-07-22T05:03:30;21.90;99.90
16243;DHT22;11719;51.052;6.982;2023-07-22T05:05:56;21.90;99.90
16243;DHT22;11719;51.052;6.982;2023-07-22T05:08:23;21.90;99.90
16243;DHT22;11719;51.052;6.982;2023-07-22T05:10:49;21.90;99.90
16243;DHT22;11719;51.052;6.982;2023-07-22T05:13:15;21.90;99.90
16243;DHT22;11719;51.052;6.982;2023-07-22T05:15:41;21.90;99.90
16243;DHT22;11719;51.052;6.982;2023-07-22T05:18:07;21.90;99.90
16243;DHT22;11719;51.052;6.982;2023-07-22T05:20:33;21.90;99.90
16243;DHT22;11719;51.052;6.982;2023-07-22T05:22:59;21.80;99.90
16243;DHT22;11719;51.052;6.982;2023-07-22T05:25:25;21.80;99.90
16243;DHT22;11719;51.052;6.982;2023-07-22T05:27:50;21.70;99.90
16243;DHT22;11719;51.052;6.982;2023-07-22T05:30:16;21.60;99.90
16243;DHT22;11719;51.052;6.982;2023-07-22T05:32:42;21.30;99.90
16243;DHT22;11719;51.052;6.982;2023-07-22T05:35:08;21.10;99.90
16243;DHT22;11719;51.052;6.982;2023-07-22T05:37:34;20.80;99.90
16243;DHT22;11719;51.052;6.982;2023-07-22T05:40:00;20.80;99.90
16243;DHT22;11719;51.052;6.982;2023-07-22T05:42:27;20.60;99.90
16243;DHT22;11719;51.052;6.982;2023-07-22T05:44:54;20.60;99.90
16243;DHT22;11719;51.052;6.982;2023-07-22T05:47:21;20.50;99.90
16243;DHT22;11719;51.052;6.982;2023-07-22T05:49:47;20.40;99.90
16243;DHT22;11719;51.052;6.982;2023-07-22T05:52:13;20.50;99.90
16243;DHT22;11719;51.052;6.982;2023-07-22T05:54:39;20.70;99.90
16243;DHT22;11719;51.052;6.982;2023-07-22T05:57:05;20.90;99.90
16243;DHT22;11719;51.052;6.982;2023-07-22T05:59:31;21.00;99.90
16243;DHT22;11719;51.052;6.982;2023-07-22T06:01:57;21.10;99.90
16243;DHT22;11719;51.052;6.982;2023-07-22T06:04:22;21.30;99.90
16243;DHT22;11719;51.052;6.982;2023-07-22T06:06:48;21.40;99.90
16243;DHT22;11719;51.052;6.982;2023-07-22T06:09:14;21.40;99.90
16243;DHT22;11719;51.052;6.982;2023-07-22T06:11:40;21.50;99.90
16243;DHT22;11719;51.052;6.982;2023-07-22T06:14:06;21.50;99.90
16243;DHT22;11719;51.052;6.982;2023-07-22T06:16:32;21.40;99.90
16243;DHT22;11719;51.052;6.982;2023-07-22T06:18:58;21.30;99.90
16243;DHT22;11719;51.052;6.982;2023-07-22T06:21:23;21.20;99.90
16243;DHT22;11719;51.052;6.982;2023-07-22T06:23:50;21.30;99.90
16243;DHT22;11719;51.052;6.982;2023-07-22T06:26:15;21.40;99.90
16243;DHT22;11719;51.052;6.982;2023-07-22T06:28:41;21.50;99.90
16243;DHT22;11719;51.052;6.982;2023-07-22T06:31:09;21.50;99.90
16243;DHT22;11719;51.052;6.982;2023-07-22T06:33:34;21.60;99.90
16243;DHT22;11719;51.052;6.982;2023-07-22T06:36:01;21.60;99.90
16243;DHT22;11719;51.052;6.982;2023-07-22T06:38:27;21.60;99.90
16243;DHT22;11719;51.052;6.982;2023-07-22T06:40:53;21.70;99.90
16243;DHT22;11719;51.052;6.982;2023-07-22T06:43:19;21.50;99.90
16243;DHT22;11719;51.052;6.982;2023-07-22T06:45:45;21.30;99.90
16243;DHT22;11719;51.052;6.982;2023-07-22T06:48:10;21.30;99.90
16243;DHT22;11719;51.052;6.982;2023-07-22T06:50:36;21.40;99.90
16243;DHT22;11719;51.052;6.982;2023-07-22T06:53:02;21.40;99.90
16243;DHT22;11719;51.052;6.982;2023-07-22T06:55:29;21.40;99.90
16243;DHT22;11719;51.052;6.982;2023-07-22T06:57:57;21.20;99.90
16243;DHT22;11719;51.052;6.982;2023-07-22T07:00:25;21.10;99.90
16243;DHT22;11719;51.052;6.982;2023-07-22T07:02:50;21.00;99.90
16243;DHT22;11719;51.052;6.982;2023-07-22T07:05:16;20.80;99.90
16243;DHT22;11719;51.052;6.982;2023-07-22T07:07:42;20.90;99.90
16243;DHT22;11719;51.052;6.982;2023-07-22T07:10:09;20.80;99.90
16243;DHT22;11719;51.052;6.982;2023-07-22T07:12:34;20.80;99.90
16243;DHT22;11719;51.052;6.982;2023-07-22T07:15:00;20.80;99.90
16243;DHT22;11719;51.052;6.982;2023-07-22T07:17:26;20.80;99.90
16243;DHT22;11719;51.052;6.982;2023-07-22T07:19:52;20.80;99.90
16243;DHT22;11719;51.052;6.982;2023-07-22T07:22:18;20.80;99.90
16243;DHT22;11719;51.052;6.982;2023-07-22T07:24:44;20.70;99.90
16243;DHT22;11719;51.052;6.982;2023-07-22T07:27:09;20.80;99.90
16243;DHT22;11719;51.052;6.982;2023-07-22T07:29:35;20.80;99.90
16243;DHT22;11719;51.052;6.982;2023-07-22T07:32:01;20.90;99.90
16243;DHT22;11719;51.052;6.982;2023-07-22T07:34:27;20.80;99.90
16243;DHT22;11719;51.052;6.982;2023-07-22T07:36:53;20.70;99.90
16243;DHT22;11719;51.052;6.982;2023-07-22T07:39:18;20.80;99.90
16243;DHT22;11719;51.052;6.982;2023-07-22T07:41:44;20.70;99.90
16243;DHT22;11719;51.052;6.982;2023-07-22T07:44:10;20.70;99.90
16243;DHT22;11719;51.052;6.982;2023-07-22T07:46:35;20.70;99.90
16243;DHT22;11719;51.052;6.982;2023-07-22T07:49:01;20.80;99.90
16243;DHT22;11719;51.052;6.982;2023-07-22T07:51:29;20.80;99.90
16243;DHT22;11719;51.052;6.982;2023-07-22T07:53:56;20.90;99.90
16243;DHT22;11719;51.052;6.982;2023-07-22T07:56:26;21.00;99.90
16243;DHT22;11719;51.052;6.982;2023-07-22T07:58:53;21.10;99.90
16243;DHT22;11719;51.052;6.982;2023-07-22T08:01:19;21.10;99.90
16243;DHT22;11719;51.052;6.982;2023-07-22T08:03:46;21.10;99.90
16243;DHT22;11719;51.052;6.982;2023-07-22T08:06:12;21.20;99.90
16243;DHT22;11719;51.052;6.982;2023-07-22T08:08:39;21.20;99.90
16243;DHT22;11719;51.052;6.982;2023-07-22T08:11:10;21.30;99.90
16243;DHT22;11719;51.052;6.982;2023-07-22T08:13:39;21.30;99.90
16243;DHT22;11719;51.052;6.982;2023-07-22T08:16:08;21.30;99.90
16243;DHT22;11719;51.052;6.982;2023-07-22T08:18:35;21.30;99.90
16243;DHT22;11719;51.052;6.982;2023-07-22T08:21:03;21.30;99.90
16243;DHT22;11719;51.052;6.982;2023-07-22T08:23:30;21.30;99.90
16243;DHT22;11719;51.052;6.982;2023-07-22T08:25:56;21.40;99.90
16243;DHT22;11719;51.052;6.982;2023-07-22T08:28:22;21.30;99.90
16243;DHT22;11719;51.052;6.982;2023-07-22T08:30:48;21.30;99.90
16243;DHT22;11719;51.052;6.982;2023-07-22T08:33:14;21.30;99.90
16243;DHT22;11719;51.052;6.982;2023-07-22T08:35:42;21.40;99.90
16243;DHT22;11719;51.052;6.982;2023-07-22T08:38:08;21.30;99.90
16243;DHT22;11719;51.052;6.982;2023-07-22T08:40:37;21.30;99.90
16243;DHT22;11719;51.052;6.982;2023-07-22T08:43:04;21.40;99.90
16243;DHT22;11719;51.052;6.982;2023-07-22T08:45:33;21.40;99.90
16243;DHT22;11719;51.052;6.982;2023-07-22T08:48:03;21.40;99.90
16243;DHT22;11719;51.052;6.982;2023-07-22T08:50:52;21.50;99.90
16243;DHT22;11719;51.052;6.982;2023-07-22T08:53:22;21.50;99.90
16243;DHT22;11719;51.052;6.982;2023-07-22T08:55:51;21.50;99.60
16243;DHT22;11719;51.052;6.982;2023-07-22T08:58:17;21.50;99.90
16243;DHT22;11719;51.052;6.982;2023-07-22T09:00:43;21.60;99.90
16243;DHT22;11719;51.052;6.982;2023-07-22T09:03:11;21.60;99.90
16243;DHT22;11719;51.052;6.982;2023-07-22T09:05:37;21.70;99.90
16243;DHT22;11719;51.052;6.982;2023-07-22T09:08:06;21.70;99.50
16243;DHT22;11719;51.052;6.982;2023-07-22T09:10:33;21.70;99.20
16243;DHT22;11719;51.052;6.982;2023-07-22T09:13:03;21.70;99.90
16243;DHT22;11719;51.052;6.982;2023-07-22T09:15:33;21.70;99.90
16243;DHT22;11719;51.052;6.982;2023-07-22T09:18:00;21.70;99.00
16243;DHT22;11719;51.052;6.982;2023-07-22T09:20:26;21.80;99.70
16243;DHT22;11719;51.052;6.982;2023-07-22T09:22:53;21.80;98.60
16243;DHT22;11719;51.052;6.982;2023-07-22T09:25:27;21.90;97.60
16243;DHT22;11719;51.052;6.982;2023-07-22T09:28:00;21.90;97.30
16243;DHT22;11719;51.052;6.982;2023-07-22T09:30:28;22.00;99.80
16243;DHT22;11719;51.052;6.982;2023-07-22T09:33:00;22.00;96.90
16243;DHT22;11719;51.052;6.982;2023-07-22T09:35:35;22.00;98.60
16243;DHT22;11719;51.052;6.982;2023-07-22T09:38:09;22.00;96.30
16243;DHT22;11719;51.052;6.982;2023-07-22T09:40:35;22.00;97.90
16243;DHT22;11719;51.052;6.982;2023-07-22T09:43:02;22.00;96.50
16243;DHT22;11719;51.052;6.982;2023-07-22T09:45:29;22.00;95.70
16243;DHT22;11719;51.052;6.982;2023-07-22T09:47:57;22.00;96.90
16243;DHT22;11719;51.052;6.982;2023-07-22T09:50:24;22.00;97.80
16243;DHT22;11719;51.052;6.982;2023-07-22T09:52:54;22.00;99.40
16243;DHT22;11719;51.052;6.982;2023-07-22T09:55:26;22.00;95.30
16243;DHT22;11719;51.052;6.982;2023-07-22T09:57:58;22.00;96.70
16243;DHT22;11719;51.052;6.982;2023-07-22T10:00:33;22.10;96.80
16243;DHT22;11719;51.052;6.982;2023-07-22T10:03:01;22.10;96.40
16243;DHT22;11719;51.052;6.982;2023-07-22T10:05:33;22.10;96.90
16243;DHT22;11719;51.052;6.982;2023-07-22T10:08:01;22.20;97.30
16243;DHT22;11719;51.052;6.982;2023-07-22T10:10:33;22.10;97.70
16243;DHT22;11719;51.052;6.982;2023-07-22T10:13:01;22.20;96.50
16243;DHT22;11719;51.052;6.982;2023-07-22T10:15:32;22.20;95.40
16243;DHT22;11719;51.052;6.982;2023-07-22T10:18:00;22.30;94.10
16243;DHT22;11719;51.052;6.982;2023-07-22T10:20:28;22.40;94.60
16243;DHT22;11719;51.052;6.982;2023-07-22T10:22:55;22.30;96.50
16243;DHT22;11719;51.052;6.982;2023-07-22T10:25:22;22.40;96.40
16243;DHT22;11719;51.052;6.982;2023-07-22T10:27:49;22.40;96.50
16243;DHT22;11719;51.052;6.982;2023-07-22T10:30:18;22.40;95.60
16243;DHT22;11719;51.052;6.982;2023-07-22T10:32:49;22.40;96.30
16243;DHT22;11719;51.052;6.982;2023-07-22T10:35:37;22.40;92.90
16243;DHT22;11719;51.052;6.982;2023-07-22T10:38:14;22.40;93.50
16243;DHT22;11719;51.052;6.982;2023-07-22T10:40:54;22.50;93.20
16243;DHT22;11719;51.052;6.982;2023-07-22T10:43:31;22.40;92.80
16243;DHT22;11719;51.052;6.982;2023-07-22T10:46:12;22.40;93.80
16243;DHT22;11719;51.052;6.982;2023-07-22T10:48:42;22.50;94.20
16243;DHT22;11719;51.052;6.982;2023-07-22T10:51:10;22.50;93.50
16243;DHT22;11719;51.052;6.982;2023-07-22T10:53:44;22.50;93.20
16243;DHT22;11719;51.052;6.982;2023-07-22T10:56:15;22.50;95.50
16243;DHT22;11719;51.052;6.982;2023-07-22T11:12:00;22.60;92.30
16243;DHT22;11719;51.052;6.982;2023-07-22T11:14:31;22.70;93.30
16243;DHT22;11719;51.052;6.982;2023-07-22T11:17:00;22.60;94.70
16243;DHT22;11719;51.052;6.982;2023-07-22T11:19:29;22.70;93.90
16243;DHT22;11719;51.052;6.982;2023-07-22T11:21:55;22.80;93.80
16243;DHT22;11719;51.052;6.982;2023-07-22T11:24:23;22.90;94.60
16243;DHT22;11719;51.052;6.982;2023-07-22T11:26:50;22.80;94.60
16243;DHT22;11719;51.052;6.982;2023-07-22T11:29:17;22.80;91.70
16243;DHT22;11719;51.052;6.982;2023-07-22T11:31:45;22.90;91.40
16243;DHT22;11719;51.052;6.982;2023-07-22T11:34:14;23.00;91.70
16243;DHT22;11719;51.052;6.982;2023-07-22T11:36:40;23.00;93.50
16243;DHT22;11719;51.052;6.982;2023-07-22T11:39:17;23.00;91.30
16243;DHT22;11719;51.052;6.982;2023-07-22T11:41:44;23.00;89.90
16243;DHT22;11719;51.052;6.982;2023-07-22T11:44:13;23.00;90.60
16243;DHT22;11719;51.052;6.982;2023-07-22T11:47:07;23.00;88.30
16243;DHT22;11719;51.052;6.982;2023-07-22T11:49:41;23.00;90.60
16243;DHT22;11719;51.052;6.982;2023-07-22T11:52:15;23.00;93.40
16243;DHT22;11719;51.052;6.982;2023-07-22T11:54:44;23.00;93.40
16243;DHT22;11719;51.052;6.982;2023-07-22T11:59:47;23.10;90.60
16243;DHT22;11719;51.052;6.982;2023-07-22T12:02:20;23.00;90.30
16243;DHT22;11719;51.052;6.982;2023-07-22T12:04:55;23.10;90.00
16243;DHT22;11719;51.052;6.982;2023-07-22T12:07:28;23.10;90.20
16243;DHT22;11719;51.052;6.982;2023-07-22T12:09:56;23.10;89.50
16243;DHT22;11719;51.052;6.982;2023-07-22T12:12:33;23.10;92.20
16243;DHT22;11719;51.052;6.982;2023-07-22T12:15:08;23.10;90.20
16243;DHT22;11719;51.052;6.982;2023-07-22T12:20:24;23.10;90.60
16243;DHT22;11719;51.052;6.982;2023-07-22T12:22:52;23.10;92.00
16243;DHT22;11719;51.052;6.982;2023-07-22T12:25:18;23.10;90.30
16243;DHT22;11719;51.052;6.982;2023-07-22T12:27:44;23.20;86.50
16243;DHT22;11719;51.052;6.982;2023-07-22T12:30:10;23.30;87.50
16243;DHT22;11719;51.052;6.982;2023-07-22T12:32:37;23.40;89.70
16243;DHT22;11719;51.052;6.982;2023-07-22T12:35:03;23.50;84.10
16243;DHT22;11719;51.052;6.982;2023-07-22T12:37:30;23.60;85.40
16243;DHT22;11719;51.052;6.982;2023-07-22T12:39:56;23.60;88.80
16243;DHT22;11719;51.052;6.982;2023-07-22T12:42:22;23.60;88.00
16243;DHT22;11719;51.052;6.982;2023-07-22T12:44:48;23.60;91.10
16243;DHT22;11719;51.052;6.982;2023-07-22T12:47:14;23.60;90.60
16243;DHT22;11719;51.052;6.982;2023-07-22T12:49:40;23.60;85.80
16243;DHT22;11719;51.052;6.982;2023-07-22T12:52:06;23.60;88.40
16243;DHT22;11719;51.052;6.982;2023-07-22T12:54:35;23.60;90.50
16243;DHT22;11719;51.052;6.982;2023-07-22T12:57:01;23.50;86.80
16243;DHT22;11719;51.052;6.982;2023-07-22T12:59:27;23.80;86.10
16243;DHT22;11719;51.052;6.982;2023-07-22T13:01:53;23.80;92.00
16243;DHT22;11719;51.052;6.982;2023-07-22T13:04:19;23.80;83.10
16243;DHT22;11719;51.052;6.982;2023-07-22T13:06:45;23.90;88.00
16243;DHT22;11719;51.052;6.982;2023-07-22T13:09:11;23.90;89.40
16243;DHT22;11719;51.052;6.982;2023-07-22T13:11:37;23.90;91.00
16243;DHT22;11719;51.052;6.982;2023-07-22T13:14:03;23.90;82.40
16243;DHT22;11719;51.052;6.982;2023-07-22T13:16:29;24.00;81.80
16243;DHT22;11719;51.052;6.982;2023-07-22T13:18:55;24.20;85.30
16243;DHT22;11719;51.052;6.982;2023-07-22T13:21:20;24.30;75.90
16243;DHT22;11719;51.052;6.982;2023-07-22T13:23:46;24.40;80.10
16243;DHT22;11719;51.052;6.982;2023-07-22T13:26:12;24.40;76.80
16243;DHT22;11719;51.052;6.982;2023-07-22T13:28:38;24.30;80.20
16243;DHT22;11719;51.052;6.982;2023-07-22T13:31:03;24.30;83.20
16243;DHT22;11719;51.052;6.982;2023-07-22T13:33:29;24.30;81.70
16243;DHT22;11719;51.052;6.982;2023-07-22T13:35:56;24.30;77.90
16243;DHT22;11719;51.052;6.982;2023-07-22T13:38:22;24.50;79.30
16243;DHT22;11719;51.052;6.982;2023-07-22T13:40:47;24.40;79.20
16243;DHT22;11719;51.052;6.982;2023-07-22T13:43:13;24.50;80.50
16243;DHT22;11719;51.052;6.982;2023-07-22T13:45:39;24.30;84.50
16243;DHT22;11719;51.052;6.982;2023-07-22T13:48:06;24.20;83.80
16243;DHT22;11719;51.052;6.982;2023-07-22T13:50:32;24.20;81.00
16243;DHT22;11719;51.052;6.982;2023-07-22T13:52:58;24.20;82.90
16243;DHT22;11719;51.052;6.982;2023-07-22T13:55:23;24.10;83.10
16243;DHT22;11719;51.052;6.982;2023-07-22T13:57:49;24.20;78.30
16243;DHT22;11719;51.052;6.982;2023-07-22T14:00:15;24.20;83.10
16243;DHT22;11719;51.052;6.982;2023-07-22T14:02:41;24.20;79.70
16243;DHT22;11719;51.052;6.982;2023-07-22T14:05:07;24.30;81.20
16243;DHT22;11719;51.052;6.982;2023-07-22T14:07:35;24.40;76.90
16243;DHT22;11719;51.052;6.982;2023-07-22T14:10:02;24.60;82.90
16243;DHT22;11719;51.052;6.982;2023-07-22T14:12:29;24.60;81.90
16243;DHT22;11719;51.052;6.982;2023-07-22T14:14:55;24.60;82.40
16243;DHT22;11719;51.052;6.982;2023-07-22T14:17:21;24.70;78.20
16243;DHT22;11719;51.052;6.982;2023-07-22T14:19:47;24.90;80.30
16243;DHT22;11719;51.052;6.982;2023-07-22T14:22:13;24.90;77.00
16243;DHT22;11719;51.052;6.982;2023-07-22T14:24:38;24.90;77.80
16243;DHT22;11719;51.052;6.982;2023-07-22T14:27:04;25.00;80.00
16243;DHT22;11719;51.052;6.982;2023-07-22T14:29:30;24.80;81.70
16243;DHT22;11719;51.052;6.982;2023-07-22T14:31:56;24.90;77.30
16243;DHT22;11719;51.052;6.982;2023-07-22T14:34:23;24.90;80.90
16243;DHT22;11719;51.052;6.982;2023-07-22T14:36:49;24.80;83.60
16243;DHT22;11719;51.052;6.982;2023-07-22T14:39:15;24.60;83.70
16243;DHT22;11719;51.052;6.982;2023-07-22T14:41:42;24.50;81.90
16243;DHT22;11719;51.052;6.982;2023-07-22T14:44:10;24.50;81.80
16243;DHT22;11719;51.052;6.982;2023-07-22T14:46:36;24.60;82.20
16243;DHT22;11719;51.052;6.982;2023-07-22T14:49:03;24.80;80.60
16243;DHT22;11719;51.052;6.982;2023-07-22T14:51:29;24.80;84.30
16243;DHT22;11719;51.052;6.982;2023-07-22T14:53:55;24.60;86.20
16243;DHT22;11719;51.052;6.982;2023-07-22T14:56:21;24.60;81.00
16243;DHT22;11719;51.052;6.982;2023-07-22T14:58:47;24.40;84.50
16243;DHT22;11719;51.052;6.982;2023-07-22T15:01:14;24.30;83.80
16243;DHT22;11719;51.052;6.982;2023-07-22T15:03:40;24.10;87.00
16243;DHT22;11719;51.052;6.982;2023-07-22T15:06:06;24.00;85.20
16243;DHT22;11719;51.052;6.982;2023-07-22T15:08:32;24.10;84.10
16243;DHT22;11719;51.052;6.982;2023-07-22T15:10:58;24.20;81.80
16243;DHT22;11719;51.052;6.982;2023-07-22T15:13:24;24.30;82.50
16243;DHT22;11719;51.052;6.982;2023-07-22T15:15:53;24.30;84.50
16243;DHT22;11719;51.052;6.982;2023-07-22T15:18:20;24.10;81.90
16243;DHT22;11719;51.052;6.982;2023-07-22T15:20:46;23.90;86.40
16243;DHT22;11719;51.052;6.982;2023-07-22T15:23:12;23.90;83.00
16243;DHT22;11719;51.052;6.982;2023-07-22T15:25:38;23.90;84.20
16243;DHT22;11719;51.052;6.982;2023-07-22T15:28:05;23.80;84.70
16243;DHT22;11719;51.052;6.982;2023-07-22T15:30:30;23.80;86.20
16243;DHT22;11719;51.052;6.982;2023-07-22T15:32:56;23.80;82.70
16243;DHT22;11719;51.052;6.982;2023-07-22T15:35:22;23.90;82.90
16243;DHT22;11719;51.052;6.982;2023-07-22T15:37:48;23.90;84.70
16243;DHT22;11719;51.052;6.982;2023-07-22T15:40:13;24.00;84.00
16243;DHT22;11719;51.052;6.982;2023-07-22T15:42:40;23.90;86.20
16243;DHT22;11719;51.052;6.982;2023-07-22T15:45:06;24.00;87.60
16243;DHT22;11719;51.052;6.982;2023-07-22T15:47:34;24.10;85.80
16243;DHT22;11719;51.052;6.982;2023-07-22T15:50:00;24.00;87.90